Time;durP1;ratioP1;P1;durP2;ratioP2;P2;SDS_P1;SDS_P2;PMS_P1;PMS_P2;Temp;Humidity;BMP_temperature;BMP_pressure;BME280_temperature;BME280_humidity;BME280_pressure;Samples;Min_cycle;Max_cycle;Signal;HPM_P1;HPM_P2
2021/01/30 00:01:58;;;;;;;7.00;2.35;;;;;;;;;;5068562;28;20050;-76
2021/01/30 00:04:24;;;;;;;7.05;2.45;;;;;;;;;;5067465;28;20052;-76
2021/01/30 00:06:51;;;;;;;7.05;2.53;;;;;;;;;;5065979;28;20035;-76
2021/01/30 00:09:17;;;;;;;7.93;2.35;;;;;;;;;;5069504;28;20028;-76
2021/01/30 00:11:47;;;;;;;12.55;2.75;;;;;;;;;;5070157;28;20029;-76
2021/01/30 00:14:12;;;;;;;10.63;3.40;;;;;;;;;;5066604;28;20032;-76
2021/01/30 00:16:38;;;;;;;6.00;2.28;;;;;;;;;;5066031;28;20037;-76
2021/01/30 00:19:04;;;;;;;6.70;2.33;;;;;;;;;;5065994;28;20372;-76
2021/01/30 00:21:30;;;;;;;6.10;1.70;;;;;;;;;;5063462;28;20038;-76
2021/01/30 00:23:56;;;;;;;6.20;1.90;;;;;;;;;;5068422;28;20420;-76
2021/01/30 00:26:22;;;;;;;3.78;2.03;;;;;;;;;;5067256;28;20036;-76
2021/01/30 00:28:48;;;;;;;2.85;2.17;;;;;;;;;;5064602;28;20037;-76
2021/01/30 00:31:14;;;;;;;4.63;1.85;;;;;;;;;;5070290;28;20095;-76
2021/01/30 00:33:40;;;;;;;8.23;1.98;;;;;;;;;;5066907;28;20128;-76
2021/01/30 00:36:06;;;;;;;5.65;2.17;;;;;;;;;;5067588;28;20028;-76
2021/01/30 00:38:32;;;;;;;5.40;1.88;;;;;;;;;;5070629;28;20028;-76
2021/01/30 00:40:58;;;;;;;5.72;1.85;;;;;;;;;;5076930;28;20029;-76
2021/01/30 00:43:23;;;;;;;5.75;2.22;;;;;;;;;;5085288;28;20171;-76
2021/01/30 00:45:49;;;;;;;7.13;2.65;;;;;;;;;;5088660;28;20021;-76
2021/01/30 00:48:15;;;;;;;4.20;2.20;;;;;;;;;;5085680;28;20051;-76
2021/01/30 00:50:41;;;;;;;8.82;2.35;;;;;;;;;;5088509;28;20024;-76
2021/01/30 00:53:07;;;;;;;6.45;2.28;;;;;;;;;;5089342;28;20029;-76
2021/01/30 00:55:33;;;;;;;5.30;2.20;;;;;;;;;;5087172;28;20016;-76
2021/01/30 00:57:59;;;;;;;11.43;2.28;;;;;;;;;;5085858;28;20261;-76
2021/01/30 01:00:26;;;;;;;4.22;2.10;;;;;;;;;;5085971;28;20032;-76
2021/01/30 01:02:52;;;;;;;7.68;2.05;;;;;;;;;;5086703;28;20036;-76
2021/01/30 01:05:19;;;;;;;6.15;2.63;;;;;;;;;;5066107;28;20528;-76
2021/01/30 01:07:45;;;;;;;4.07;2.20;;;;;;;;;;5068173;28;20182;-76
2021/01/30 01:10:12;;;;;;;7.82;2.28;;;;;;;;;;5063383;28;20024;-76
2021/01/30 01:12:38;;;;;;;6.53;2.72;;;;;;;;;;5068310;28;20028;-76
2021/01/30 01:15:06;;;;;;;6.70;2.20;;;;;;;;;;5066162;28;20035;-76
2021/01/30 01:17:32;;;;;;;10.18;2.88;;;;;;;;;;5066707;28;20035;-76
2021/01/30 01:19:58;;;;;;;5.60;2.78;;;;;;;;;;5066144;28;20029;-76
2021/01/30 01:22:24;;;;;;;8.35;2.42;;;;;;;;;;5069159;28;20031;-76
2021/01/30 01:24:50;;;;;;;7.10;2.28;;;;;;;;;;5058641;28;20249;-77
2021/01/30 01:27:16;;;;;;;6.43;2.72;;;;;;;;;;5047883;28;20048;-76
2021/01/30 01:29:42;;;;;;;7.38;2.30;;;;;;;;;;5069497;28;20453;-76
2021/01/30 01:32:08;;;;;;;5.95;2.28;;;;;;;;;;5068742;28;20122;-76
2021/01/30 01:34:34;;;;;;;6.68;2.42;;;;;;;;;;5066893;28;20070;-74
2021/01/30 01:37:02;;;;;;;9.02;2.70;;;;;;;;;;5068546;28;20036;-74
2021/01/30 01:39:29;;;;;;;7.85;2.30;;;;;;;;;;5064625;28;20111;-75
2021/01/30 01:42:04;;;;;;;5.68;2.90;;;;;;;;;;5056818;28;20032;-75
2021/01/30 01:44:30;;;;;;;5.47;2.75;;;;;;;;;;5061653;28;20108;-74
2021/01/30 01:46:56;;;;;;;4.78;3.03;;;;;;;;;;5040715;28;20111;-75
2021/01/30 01:49:26;;;;;;;5.93;3.55;;;;;;;;;;5055355;28;20127;-75
2021/01/30 01:51:52;;;;;;;;;;;;;;;;;;5060754;28;20052;-74
2021/01/30 01:54:21;;;;;;;5.82;3.45;;;;;;;;;;5063428;28;20377;-74
2021/01/30 01:56:50;;;;;;;5.00;3.45;;;;;;;;;;5061629;28;20029;-74
2021/01/30 01:59:17;;;;;;;4.32;2.78;;;;;;;;;;5051212;28;20029;-74
2021/01/30 02:01:44;;;;;;;5.68;3.08;;;;;;;;;;5035478;28;20029;-74
2021/01/30 02:04:14;;;;;;;4.70;3.38;;;;;;;;;;5067398;28;20028;-75
2021/01/30 02:06:42;;;;;;;7.88;3.60;;;;;;;;;;5049559;28;20025;-74
2021/01/30 02:09:09;;;;;;;7.57;3.05;;;;;;;;;;5040841;28;20052;-74
2021/01/30 02:11:36;;;;;;;5.93;4.32;;;;;;;;;;5064950;28;20029;-74
2021/01/30 02:14:02;;;;;;;4.50;2.67;;;;;;;;;;5047989;28;20081;-74
2021/01/30 02:16:28;;;;;;;5.15;2.80;;;;;;;;;;5065556;28;20025;-75
2021/01/30 02:18:57;;;;;;;3.25;2.70;;;;;;;;;;5059187;28;20021;-75
2021/01/30 02:21:32;;;;;;;3.58;3.03;;;;;;;;;;5061030;28;20035;-74
2021/01/30 02:24:10;;;;;;;5.22;2.72;;;;;;;;;;5052738;28;20039;-74
2021/01/30 02:27:00;;;;;;;5.38;3.42;;;;;;;;;;5068051;28;20032;-74
2021/01/30 02:29:33;;;;;;;6.47;3.95;;;;;;;;;;5044794;28;20025;-74
2021/01/30 02:32:08;;;;;;;6.22;3.25;;;;;;;;;;5065913;28;20451;-74
2021/01/30 02:34:43;;;;;;;5.10;3.00;;;;;;;;;;5055820;28;20031;-74
2021/01/30 02:37:08;;;;;;;5.95;3.40;;;;;;;;;;5064805;28;20068;-75
2021/01/30 02:39:39;;;;;;;6.28;4.28;;;;;;;;;;5055339;28;20032;-74
2021/01/30 02:42:05;;;;;;;7.70;3.78;;;;;;;;;;5067368;28;20467;-74
2021/01/30 02:44:32;;;;;;;7.32;3.92;;;;;;;;;;5062523;28;20108;-75
2021/01/30 02:46:58;;;;;;;5.10;3.30;;;;;;;;;;5047719;28;20037;-74
2021/01/30 02:49:26;;;;;;;5.88;4.20;;;;;;;;;;5062471;28;20075;-76
2021/01/30 02:52:13;;;;;;;6.70;4.45;;;;;;;;;;5054973;28;20025;-75
2021/01/30 02:54:39;;;;;;;6.60;3.97;;;;;;;;;;5055262;28;20115;-75
2021/01/30 02:57:10;;;;;;;6.38;4.18;;;;;;;;;;5055555;28;20071;-74
2021/01/30 02:59:39;;;;;;;7.43;4.40;;;;;;;;;;5063734;28;20104;-74
2021/01/30 03:02:05;;;;;;;7.60;4.47;;;;;;;;;;5052407;28;20043;-75
2021/01/30 03:04:31;;;;;;;10.02;5.18;;;;;;;;;;5063543;28;20111;-74
2021/01/30 03:07:00;;;;;;;9.23;5.03;;;;;;;;;;5053259;28;20043;-74
2021/01/30 03:09:45;;;;;;;5.35;3.67;;;;;;;;;;5068141;28;20051;-76
2021/01/30 03:12:15;;;;;;;5.40;3.95;;;;;;;;;;5052073;28;20032;-75
2021/01/30 03:14:59;;;;;;;9.07;4.80;;;;;;;;;;5059749;28;20033;-76
2021/01/30 03:17:26;;;;;;;7.93;5.22;;;;;;;;;;5066495;28;20021;-75
2021/01/30 03:19:53;;;;;;;8.18;4.28;;;;;;;;;;5078662;28;20474;-74
2021/01/30 03:22:20;;;;;;;10.52;5.85;;;;;;;;;;5070177;28;20028;-75
2021/01/30 03:24:46;;;;;;;8.27;5.25;;;;;;;;;;5052926;28;20554;-75
2021/01/30 03:27:23;;;;;;;7.03;4.85;;;;;;;;;;5062098;28;20087;-74
2021/01/30 03:29:52;;;;;;;6.68;4.70;;;;;;;;;;5065281;28;20039;-74
2021/01/30 03:32:19;;;;;;;8.00;5.30;;;;;;;;;;5051415;28;20485;-74
2021/01/30 03:34:46;;;;;;;6.95;5.03;;;;;;;;;;5053594;28;20509;-76
2021/01/30 03:37:12;;;;;;;8.23;4.53;;;;;;;;;;5071111;28;20032;-75
2021/01/30 03:39:38;;;;;;;10.23;6.22;;;;;;;;;;5056589;28;20118;-74
2021/01/30 03:42:04;;;;;;;8.75;5.30;;;;;;;;;;5071697;28;20064;-74
2021/01/30 03:44:30;;;;;;;8.77;5.55;;;;;;;;;;5057960;28;20416;-75
2021/01/30 03:46:55;;;;;;;7.40;5.15;;;;;;;;;;5064701;28;20104;-74
2021/01/30 03:49:21;;;;;;;8.52;6.10;;;;;;;;;;5056888;28;20547;-75
2021/01/30 03:51:47;;;;;;;9.60;5.75;;;;;;;;;;5067373;28;20056;-75
2021/01/30 03:54:13;;;;;;;7.82;5.47;;;;;;;;;;5049445;28;20186;-76
2021/01/30 03:56:42;;;;;;;7.90;6.10;;;;;;;;;;5052522;28;20020;-75
2021/01/30 03:59:08;;;;;;;10.45;5.55;;;;;;;;;;5071302;28;20064;-74
2021/01/30 04:01:34;;;;;;;9.02;5.88;;;;;;;;;;5070082;28;20071;-74
2021/01/30 04:04:00;;;;;;;8.10;5.93;;;;;;;;;;5070908;28;20031;-72
2021/01/30 04:06:26;;;;;;;7.90;5.78;;;;;;;;;;5070892;28;20032;-72
2021/01/30 04:08:53;;;;;;;9.27;6.38;;;;;;;;;;5068780;28;20020;-72
2021/01/30 04:11:29;;;;;;;7.72;5.90;;;;;;;;;;5058605;28;20481;-72
2021/01/30 04:13:55;;;;;;;8.38;5.80;;;;;;;;;;5055278;28;20108;-74
2021/01/30 04:16:22;;;;;;;8.20;5.65;;;;;;;;;;5057681;28;20025;-74
2021/01/30 04:18:48;;;;;;;9.77;5.53;;;;;;;;;;5054439;28;20044;-74
2021/01/30 04:21:14;;;;;;;7.57;5.55;;;;;;;;;;5057054;28;20036;-75
2021/01/30 04:23:44;;;;;;;8.02;4.72;;;;;;;;;;5057587;28;20450;-74
2021/01/30 04:26:11;;;;;;;9.55;5.00;;;;;;;;;;5068643;28;20429;-74
2021/01/30 04:28:37;;;;;;;8.07;5.05;;;;;;;;;;5056403;28;20502;-74
2021/01/30 04:31:03;;;;;;;6.85;4.55;;;;;;;;;;5066858;28;20056;-75
2021/01/30 04:33:29;;;;;;;10.60;4.65;;;;;;;;;;5070337;28;20048;-76
2021/01/30 04:35:54;;;;;;;7.15;5.03;;;;;;;;;;5067798;28;20024;-75
2021/01/30 04:38:20;;;;;;;6.65;4.28;;;;;;;;;;5061710;28;20025;-75
2021/01/30 04:40:47;;;;;;;8.10;4.85;;;;;;;;;;5078642;28;20069;-75
2021/01/30 04:43:20;;;;;;;8.68;5.25;;;;;;;;;;5069482;28;20032;-75
2021/01/30 04:46:02;;;;;;;7.88;5.07;;;;;;;;;;5068627;28;20498;-74
2021/01/30 04:48:38;;;;;;;8.00;5.10;;;;;;;;;;5063224;28;20116;-74
2021/01/30 04:51:13;;;;;;;8.57;5.55;;;;;;;;;;5051676;28;20029;-75
2021/01/30 04:53:39;;;;;;;8.30;5.32;;;;;;;;;;5056063;28;20036;-76
2021/01/30 04:56:23;;;;;;;7.82;4.60;;;;;;;;;;5048554;28;20040;-76
2021/01/30 04:58:55;;;;;;;6.55;4.65;;;;;;;;;;5063331;28;20406;-72
2021/01/30 05:01:40;;;;;;;8.65;4.85;;;;;;;;;;5064109;28;20386;-73
2021/01/30 05:04:09;;;;;;;6.07;4.45;;;;;;;;;;5046598;28;20033;-72
2021/01/30 05:06:53;;;;;;;7.53;5.20;;;;;;;;;;5063937;28;20400;-72
2021/01/30 05:09:24;;;;;;;6.90;4.20;;;;;;;;;;5059610;28;20493;-72
2021/01/30 05:12:05;;;;;;;6.28;4.38;;;;;;;;;;5067416;28;20028;-72
2021/01/30 05:14:34;;;;;;;8.10;4.90;;;;;;;;;;5068095;28;20127;-72
2021/01/30 05:17:03;;;;;;;8.23;5.60;;;;;;;;;;5066719;28;20029;-72
2021/01/30 05:19:31;;;;;;;6.67;4.13;;;;;;;;;;5058787;28;20032;-72
2021/01/30 05:21:59;;;;;;;9.27;5.43;;;;;;;;;;5066996;28;20052;-73
2021/01/30 05:24:26;;;;;;;6.90;4.45;;;;;;;;;;5051381;28;20104;-73
2021/01/30 05:26:52;;;;;;;7.25;4.95;;;;;;;;;;5058665;28;20036;-74
2021/01/30 05:29:21;;;;;;;7.93;4.30;;;;;;;;;;5068645;28;20024;-74
2021/01/30 05:31:57;;;;;;;7.10;4.82;;;;;;;;;;5068894;28;20028;-74
2021/01/30 05:34:26;;;;;;;8.35;4.55;;;;;;;;;;5068873;28;20047;-74
2021/01/30 05:37:02;;;;;;;8.90;5.33;;;;;;;;;;5069122;28;20055;-72
2021/01/30 05:39:47;;;;;;;7.32;4.50;;;;;;;;;;5052148;28;20040;-72
2021/01/30 05:42:22;;;;;;;8.37;4.57;;;;;;;;;;5060230;28;20029;-74
2021/01/30 05:44:52;;;;;;;8.20;4.82;;;;;;;;;;5062467;28;20024;-74
2021/01/30 05:47:20;;;;;;;6.55;4.60;;;;;;;;;;5045209;28;20390;-73
2021/01/30 05:49:58;;;;;;;7.60;4.80;;;;;;;;;;5067214;28;20071;-73
2021/01/30 05:52:27;;;;;;;6.60;4.35;;;;;;;;;;5048882;28;20014;-74
2021/01/30 05:54:52;;;;;;;7.23;4.37;;;;;;;;;;5063490;28;20032;-74
2021/01/30 05:57:19;;;;;;;7.43;4.63;;;;;;;;;;5062023;28;20449;-74
2021/01/30 05:59:49;;;;;;;9.57;4.83;;;;;;;;;;5041066;28;20029;-74
2021/01/30 06:02:15;;;;;;;;;;;;;;;;;;5067038;28;20028;-74
2021/01/30 06:04:41;;;;;;;7.43;4.43;;;;;;;;;;5047449;28;20344;-73
2021/01/30 06:07:17;;;;;;;7.67;5.20;;;;;;;;;;5059052;28;20025;-74
2021/01/30 06:09:45;;;;;;;6.53;3.80;;;;;;;;;;5061258;28;20086;-77
2021/01/30 06:12:25;;;;;;;6.93;4.73;;;;;;;;;;5068319;28;20071;-73
2021/01/30 06:14:51;;;;;;;8.25;4.72;;;;;;;;;;5058194;28;20558;-74
2021/01/30 06:17:27;;;;;;;8.70;4.53;;;;;;;;;;5061047;28;20036;-74
2021/01/30 06:20:12;;;;;;;6.20;3.87;;;;;;;;;;5054321;28;20037;-74
2021/01/30 06:22:38;;;;;;;7.30;4.50;;;;;;;;;;5067250;28;20027;-74
2021/01/30 06:25:21;;;;;;;9.57;5.33;;;;;;;;;;5057832;28;20028;-73
2021/01/30 06:27:48;;;;;;;8.90;5.17;;;;;;;;;;5064135;28;20036;-73
2021/01/30 06:30:32;;;;;;;7.80;4.30;;;;;;;;;;5057017;28;20021;-74
2021/01/30 06:33:00;;;;;;;7.57;4.53;;;;;;;;;;5067375;28;20090;-74
2021/01/30 06:35:31;;;;;;;8.70;4.60;;;;;;;;;;5066296;28;20052;-74
2021/01/30 06:38:11;;;;;;;7.50;4.57;;;;;;;;;;5066616;28;20393;-74
2021/01/30 06:40:57;;;;;;;7.35;4.35;;;;;;;;;;5057034;28;20573;-74
2021/01/30 06:43:27;;;;;;;8.47;5.00;;;;;;;;;;5054321;28;20025;-74
2021/01/30 06:46:00;;;;;;;9.73;4.47;;;;;;;;;;5055399;28;20359;-74
2021/01/30 06:48:28;;;;;;;8.23;5.00;;;;;;;;;;5049361;28;20024;-74
2021/01/30 06:50:54;;;;;;;7.93;4.50;;;;;;;;;;5068130;28;20098;-74
2021/01/30 06:53:24;;;;;;;8.60;5.03;;;;;;;;;;5067615;28;20024;-74
2021/01/30 06:55:50;;;;;;;8.80;5.28;;;;;;;;;;5068092;28;20024;-74
2021/01/30 06:58:22;;;;;;;6.83;4.37;;;;;;;;;;5067951;28;20059;-73
2021/01/30 07:00:48;;;;;;;9.23;4.57;;;;;;;;;;5067732;28;20111;-74
2021/01/30 07:03:25;;;;;;;9.63;4.87;;;;;;;;;;5064369;28;20029;-73
2021/01/30 07:05:59;;;;;;;10.33;4.47;;;;;;;;;;5056775;28;20040;-74
2021/01/30 07:08:44;;;;;;;8.97;5.53;;;;;;;;;;5064859;28;20104;-73
2021/01/30 07:11:23;;;;;;;8.47;4.77;;;;;;;;;;5040249;28;20031;-74
2021/01/30 07:14:08;;;;;;;7.53;4.27;;;;;;;;;;5066426;28;20498;-74
2021/01/30 07:16:55;;;;;;;8.13;4.73;;;;;;;;;;5061150;28;20028;-74
2021/01/30 07:19:28;;;;;;;6.97;4.60;;;;;;;;;;5058584;28;20144;-74
2021/01/30 07:22:13;;;;;;;6.83;4.43;;;;;;;;;;5066798;28;20095;-74
2021/01/30 07:24:48;;;;;;;8.50;4.87;;;;;;;;;;5048120;28;20037;-74
2021/01/30 07:27:25;;;;;;;7.97;4.80;;;;;;;;;;5061022;28;20056;-74
2021/01/30 07:30:11;;;;;;;7.63;4.57;;;;;;;;;;5048241;28;20037;-74
2021/01/30 07:32:40;;;;;;;8.87;5.53;;;;;;;;;;5074983;28;20036;-74
2021/01/30 07:35:12;;;;;;;8.17;4.93;;;;;;;;;;5055412;28;20096;-74
2021/01/30 07:37:38;;;;;;;7.50;4.83;;;;;;;;;;5066228;28;20033;-74
2021/01/30 07:40:06;;;;;;;9.90;5.77;;;;;;;;;;5029738;28;20025;-74
2021/01/30 07:42:51;;;;;;;7.57;4.63;;;;;;;;;;5060441;28;20033;-74
2021/01/30 07:45:28;;;;;;;9.13;4.97;;;;;;;;;;5072134;28;20028;-74
2021/01/30 07:48:01;;;;;;;8.13;4.93;;;;;;;;;;5068957;28;20029;-74
2021/01/30 07:50:29;;;;;;;7.03;3.67;;;;;;;;;;5071228;28;20413;-74
2021/01/30 07:53:00;;;;;;;8.30;4.90;;;;;;;;;;5070520;28;20103;-74
2021/01/30 07:55:26;;;;;;;7.05;3.80;;;;;;;;;;5053128;28;20127;-72
2021/01/30 07:57:58;;;;;;;9.55;5.55;;;;;;;;;;5069006;28;20024;-72
2021/01/30 08:00:39;;;;;;;9.10;5.33;;;;;;;;;;5057200;28;20025;-72
2021/01/30 08:03:19;;;;;;;7.73;4.70;;;;;;;;;;5070032;28;20177;-72
2021/01/30 08:06:04;;;;;;;7.88;5.20;;;;;;;;;;5050987;28;20029;-73
2021/01/30 08:08:36;;;;;;;6.82;4.65;;;;;;;;;;5050738;28;20115;-72
2021/01/30 08:11:05;;;;;;;7.82;5.07;;;;;;;;;;5060333;28;20209;-72
2021/01/30 08:13:49;;;;;;;6.25;3.83;;;;;;;;;;5056537;28;20039;-73
2021/01/30 08:16:38;;;;;;;6.55;4.38;;;;;;;;;;5070376;28;20021;-72
2021/01/30 08:19:06;;;;;;;8.18;4.93;;;;;;;;;;5070405;28;20033;-73
2021/01/30 08:22:04;;;;;;;6.93;4.25;;;;;;;;;;5072121;28;20032;-76
2021/01/30 08:24:45;;;;;;;8.73;4.90;;;;;;;;;;5031207;28;20602;-77
2021/01/30 08:27:28;;;;;;;6.65;4.38;;;;;;;;;;5071466;28;20067;-75
2021/01/30 08:29:55;;;;;;;7.18;4.70;;;;;;;;;;5050644;28;20029;-75
2021/01/30 08:32:24;;;;;;;6.88;4.32;;;;;;;;;;5050160;28;20039;-75
2021/01/30 08:34:51;;;;;;;6.80;4.57;;;;;;;;;;5051407;28;20060;-74
2021/01/30 08:37:17;;;;;;;7.43;4.28;;;;;;;;;;5069987;28;20044;-75
2021/01/30 08:40:01;;;;;;;8.18;4.45;;;;;;;;;;5054845;28;20712;-72
2021/01/30 08:42:29;;;;;;;7.57;4.68;;;;;;;;;;5064506;28;20079;-72
2021/01/30 08:44:59;;;;;;;7.05;3.90;;;;;;;;;;5065590;28;20031;-72
2021/01/30 08:47:30;;;;;;;5.95;3.67;;;;;;;;;;5066026;28;20037;-73
2021/01/30 08:49:56;;;;;;;7.63;5.00;;;;;;;;;;5066207;28;20028;-73
2021/01/30 08:52:24;;;;;;;6.32;3.90;;;;;;;;;;5069270;28;20462;-74
2021/01/30 08:54:51;;;;;;;5.40;3.42;;;;;;;;;;5069579;28;20028;-73
2021/01/30 08:57:32;;;;;;;7.13;3.78;;;;;;;;;;5063331;28;20043;-72
2021/01/30 08:59:59;;;;;;;6.55;3.95;;;;;;;;;;5066854;28;20040;-73
2021/01/30 09:02:32;;;;;;;5.68;3.88;;;;;;;;;;5067097;28;20029;-73
2021/01/30 09:05:10;;;;;;;6.20;3.92;;;;;;;;;;5063672;28;20430;-72
2021/01/30 09:07:36;;;;;;;8.20;4.35;;;;;;;;;;5076498;28;20033;-73
2021/01/30 09:10:20;;;;;;;7.40;3.90;;;;;;;;;;5067103;28;20417;-74
2021/01/30 09:12:57;;;;;;;7.00;3.47;;;;;;;;;;5065757;28;20029;-73
2021/01/30 09:15:41;;;;;;;8.55;4.85;;;;;;;;;;5064233;28;20029;-72
2021/01/30 09:18:25;;;;;;;9.18;5.20;;;;;;;;;;5068452;28;20549;-72
2021/01/30 09:20:51;;;;;;;9.05;4.82;;;;;;;;;;5067812;28;20505;-73
2021/01/30 09:23:32;;;;;;;7.40;5.25;;;;;;;;;;5053848;28;20029;-73
2021/01/30 09:26:02;;;;;;;6.43;4.38;;;;;;;;;;5068510;28;20024;-73
2021/01/30 09:28:29;;;;;;;6.73;3.60;;;;;;;;;;5068448;28;20025;-73
2021/01/30 09:31:04;;;;;;;9.15;5.35;;;;;;;;;;5064037;28;20032;-73
2021/01/30 09:33:37;;;;;;;7.82;4.82;;;;;;;;;;5065976;28;20211;-73
2021/01/30 09:36:09;;;;;;;8.32;4.88;;;;;;;;;;5057418;28;20461;-75
2021/01/30 09:38:40;;;;;;;9.05;4.75;;;;;;;;;;5060276;28;20486;-75
2021/01/30 09:41:12;;;;;;;9.00;5.75;;;;;;;;;;5075964;28;20039;-75
2021/01/30 09:43:39;;;;;;;10.88;5.40;;;;;;;;;;5055146;28;20056;-72
2021/01/30 09:46:06;;;;;;;7.88;5.40;;;;;;;;;;5050185;28;20029;-73
2021/01/30 09:48:35;;;;;;;10.82;6.30;;;;;;;;;;5068787;28;20382;-73
2021/01/30 09:51:01;;;;;;;10.23;5.22;;;;;;;;;;5068185;28;20036;-73
2021/01/30 09:53:32;;;;;;;13.00;5.80;;;;;;;;;;5064027;28;20074;-72
2021/01/30 09:56:09;;;;;;;10.27;4.95;;;;;;;;;;5064852;28;20521;-72
2021/01/30 09:58:36;;;;;;;10.18;5.90;;;;;;;;;;5061411;28;20433;-73
2021/01/30 10:01:04;;;;;;;10.27;5.70;;;;;;;;;;5066521;28;20085;-73
2021/01/30 10:03:36;;;;;;;13.23;6.22;;;;;;;;;;5064926;28;20550;-72
2021/01/30 10:06:09;;;;;;;12.45;6.45;;;;;;;;;;5060192;28;20162;-73
2021/01/30 10:08:36;;;;;;;9.55;6.00;;;;;;;;;;5059951;28;20029;-73
2021/01/30 10:11:03;;;;;;;9.95;5.57;;;;;;;;;;5062823;28;20033;-74
2021/01/30 10:13:29;;;;;;;10.07;5.95;;;;;;;;;;5044879;28;20029;-74
2021/01/30 10:15:55;;;;;;;10.15;5.18;;;;;;;;;;5065930;28;20029;-74
2021/01/30 10:18:23;;;;;;;10.05;5.43;;;;;;;;;;5067148;28;20441;-73
2021/01/30 10:20:50;;;;;;;9.82;5.43;;;;;;;;;;5067134;28;20066;-75
2021/01/30 10:23:36;;;;;;;7.95;5.18;;;;;;;;;;5047369;28;20510;-76
2021/01/30 10:26:09;;;;;;;6.82;4.28;;;;;;;;;;5065272;28;20036;-74
2021/01/30 10:28:47;;;;;;;10.70;6.25;;;;;;;;;;5067988;28;20393;-75
2021/01/30 10:31:14;;;;;;;8.70;4.40;;;;;;;;;;5068060;28;20378;-75
2021/01/30 10:33:43;;;;;;;7.30;4.45;;;;;;;;;;5068080;28;20028;-74
2021/01/30 10:36:10;;;;;;;7.93;4.57;;;;;;;;;;5039485;28;20029;-76
2021/01/30 10:38:36;;;;;;;7.82;4.75;;;;;;;;;;5067100;28;20088;-74
2021/01/30 10:41:03;;;;;;;6.78;3.90;;;;;;;;;;5067753;28;20636;-75
2021/01/30 10:43:33;;;;;;;8.13;4.60;;;;;;;;;;5061420;28;20504;-75
2021/01/30 10:46:21;;;;;;;9.35;5.15;;;;;;;;;;5061235;28;20028;-75
2021/01/30 10:48:48;;;;;;;7.88;4.60;;;;;;;;;;5061509;28;20328;-75
2021/01/30 10:51:16;;;;;;;6.80;4.03;;;;;;;;;;5047497;28;20036;-75
2021/01/30 10:53:43;;;;;;;7.68;4.00;;;;;;;;;;5066246;28;20021;-76
2021/01/30 10:56:21;;;;;;;6.05;3.80;;;;;;;;;;5065776;28;20035;-75
2021/01/30 10:58:51;;;;;;;8.00;4.78;;;;;;;;;;5061103;28;20450;-76
2021/01/30 11:01:17;;;;;;;7.25;4.50;;;;;;;;;;5065054;28;20087;-75
2021/01/30 11:03:43;;;;;;;9.20;5.28;;;;;;;;;;5065668;28;20493;-76
2021/01/30 11:06:29;;;;;;;6.38;3.78;;;;;;;;;;5065222;28;20048;-76
2021/01/30 11:08:55;;;;;;;7.05;4.32;;;;;;;;;;5062719;28;20029;-75
2021/01/30 11:11:24;;;;;;;7.05;3.92;;;;;;;;;;5065924;28;20021;-76
2021/01/30 11:13:50;;;;;;;7.57;4.32;;;;;;;;;;5044726;28;20029;-76
2021/01/30 11:16:18;;;;;;;7.88;3.72;;;;;;;;;;5062478;28;20484;-76
2021/01/30 11:18:48;;;;;;;7.40;4.10;;;;;;;;;;5045950;28;20445;-76
2021/01/30 11:21:26;;;;;;;8.02;5.00;;;;;;;;;;5049595;28;20128;-77
2021/01/30 11:23:53;;;;;;;10.88;4.70;;;;;;;;;;5065776;28;20036;-75
2021/01/30 11:26:31;;;;;;;6.55;3.65;;;;;;;;;;5049891;28;20033;-76
2021/01/30 11:28:58;;;;;;;7.10;4.10;;;;;;;;;;5060065;28;20091;-76
2021/01/30 11:31:25;;;;;;;6.45;4.00;;;;;;;;;;5038017;28;20025;-76
2021/01/30 11:33:52;;;;;;;7.07;4.25;;;;;;;;;;5069485;28;20143;-76
2021/01/30 11:36:18;;;;;;;7.13;3.97;;;;;;;;;;5046277;28;20029;-76
2021/01/30 11:38:45;;;;;;;8.75;4.18;;;;;;;;;;5048186;28;20035;-76
2021/01/30 11:41:11;;;;;;;10.18;4.32;;;;;;;;;;5063989;28;20051;-76
2021/01/30 11:43:37;;;;;;;7.63;4.60;;;;;;;;;;5068558;28;20039;-75
2021/01/30 11:46:03;;;;;;;7.47;4.03;;;;;;;;;;5069469;28;20028;-76
2021/01/30 11:48:29;;;;;;;7.10;4.55;;;;;;;;;;5067899;28;20067;-75
2021/01/30 11:50:55;;;;;;;7.72;4.45;;;;;;;;;;5049911;28;20033;-75
2021/01/30 11:53:26;;;;;;;7.78;4.35;;;;;;;;;;5067811;28;20108;-76
2021/01/30 11:55:52;;;;;;;7.28;4.13;;;;;;;;;;5050276;28;20033;-76
2021/01/30 11:58:18;;;;;;;7.13;4.18;;;;;;;;;;5069665;28;20534;-77
2021/01/30 12:00:44;;;;;;;7.78;4.50;;;;;;;;;;5067708;28;20036;-76
2021/01/30 12:03:23;;;;;;;6.43;3.85;;;;;;;;;;5067640;28;20027;-77
2021/01/30 12:05:49;;;;;;;6.25;4.03;;;;;;;;;;5067680;28;20115;-75
2021/01/30 12:08:15;;;;;;;6.10;3.92;;;;;;;;;;5068997;28;20557;-76
2021/01/30 12:10:41;;;;;;;7.40;3.95;;;;;;;;;;5069026;28;20032;-77
2021/01/30 12:13:07;;;;;;;6.25;3.58;;;;;;;;;;5068716;28;20474;-76
2021/01/30 12:15:33;;;;;;;7.22;4.28;;;;;;;;;;5068341;28;20371;-75
2021/01/30 12:17:59;;;;;;;5.70;3.47;;;;;;;;;;5050260;28;20039;-76
2021/01/30 12:20:27;;;;;;;6.18;3.72;;;;;;;;;;5068150;28;20024;-75
2021/01/30 12:22:57;;;;;;;7.53;4.60;;;;;;;;;;5066613;28;20039;-75
2021/01/30 12:25:23;;;;;;;7.38;4.15;;;;;;;;;;5068059;28;20456;-75
2021/01/30 12:27:53;;;;;;;7.47;4.10;;;;;;;;;;5064066;28;20025;-74
2021/01/30 12:30:20;;;;;;;6.53;3.97;;;;;;;;;;5059726;28;20485;-74
2021/01/30 12:32:46;;;;;;;6.32;3.85;;;;;;;;;;5056090;28;21414;-76
2021/01/30 12:35:12;;;;;;;6.40;3.72;;;;;;;;;;5062180;28;20032;-76
2021/01/30 12:37:38;;;;;;;6.38;3.58;;;;;;;;;;5054477;28;20131;-77
2021/01/30 12:40:05;;;;;;;6.32;3.42;;;;;;;;;;5048706;28;20179;-75
2021/01/30 12:42:31;;;;;;;6.22;3.70;;;;;;;;;;5067566;28;20090;-75
2021/01/30 12:44:57;;;;;;;6.18;3.63;;;;;;;;;;5052663;28;20036;-77
2021/01/30 12:47:30;;;;;;;6.25;3.67;;;;;;;;;;5045969;28;20123;-76
2021/01/30 12:49:56;;;;;;;7.05;4.50;;;;;;;;;;5070152;28;20027;-76
2021/01/30 12:52:22;;;;;;;9.07;4.32;;;;;;;;;;5068746;28;20028;-76
2021/01/30 12:54:49;;;;;;;7.57;3.92;;;;;;;;;;5050534;28;20462;-75
2021/01/30 12:57:14;;;;;;;5.88;4.50;;;;;;;;;;5050721;28;20398;-76
2021/01/30 12:59:40;;;;;;;6.20;3.67;;;;;;;;;;5050906;28;20040;-75
2021/01/30 13:02:08;;;;;;;5.38;3.55;;;;;;;;;;5062732;28;20028;-77
2021/01/30 13:04:34;;;;;;;8.10;4.30;;;;;;;;;;5067103;28;20151;-76
2021/01/30 13:07:00;;;;;;;5.85;3.95;;;;;;;;;;5067364;28;20107;-75
2021/01/30 13:09:26;;;;;;;7.75;4.05;;;;;;;;;;5058720;28;20028;-75
2021/01/30 13:11:52;;;;;;;6.97;4.22;;;;;;;;;;5063564;28;20029;-76
2021/01/30 13:14:19;;;;;;;5.88;3.80;;;;;;;;;;5066584;28;20035;-75
2021/01/30 13:16:45;;;;;;;7.75;5.03;;;;;;;;;;5062982;28;20281;-76
2021/01/30 13:19:14;;;;;;;8.30;4.28;;;;;;;;;;5065539;28;20192;-76
2021/01/30 13:21:44;;;;;;;6.50;4.07;;;;;;;;;;5047248;28;20031;-76
2021/01/30 13:24:12;;;;;;;7.05;4.50;;;;;;;;;;5063049;28;20262;-79
2021/01/30 13:26:41;;;;;;;8.48;5.03;;;;;;;;;;5069378;28;20067;-76
2021/01/30 13:29:16;;;;;;;5.07;3.97;;;;;;;;;;5063058;28;20070;-77
2021/01/30 13:31:43;;;;;;;6.70;4.07;;;;;;;;;;5050048;28;20033;-75
2021/01/30 13:34:09;;;;;;;7.32;4.47;;;;;;;;;;5047944;28;20028;-76
2021/01/30 13:36:35;;;;;;;7.65;4.90;;;;;;;;;;5042761;28;20391;-77
2021/01/30 13:39:02;;;;;;;6.70;3.88;;;;;;;;;;5068817;28;20410;-77
2021/01/30 13:41:28;;;;;;;7.00;4.65;;;;;;;;;;5062488;28;20104;-75
2021/01/30 13:43:53;;;;;;;11.00;4.78;;;;;;;;;;5053408;28;20033;-77
2021/01/30 13:46:19;;;;;;;6.45;4.55;;;;;;;;;;5066704;28;20025;-76
2021/01/30 13:48:45;;;;;;;6.95;4.40;;;;;;;;;;5040802;28;20055;-76
2021/01/30 13:51:11;;;;;;;5.55;4.10;;;;;;;;;;5053868;28;20024;-78
2021/01/30 13:53:37;;;;;;;7.07;4.05;;;;;;;;;;5048983;28;20053;-77
2021/01/30 13:56:03;;;;;;;8.02;3.85;;;;;;;;;;5066334;28;20024;-77
2021/01/30 13:58:29;;;;;;;7.07;4.97;;;;;;;;;;5051079;28;20090;-76
2021/01/30 14:00:55;;;;;;;7.13;4.55;;;;;;;;;;5050782;28;20020;-77
2021/01/30 14:03:21;;;;;;;7.97;4.90;;;;;;;;;;5066356;28;20040;-76
2021/01/30 14:05:47;;;;;;;6.68;4.60;;;;;;;;;;5047484;28;20021;-76
2021/01/30 14:08:13;;;;;;;16.35;5.88;;;;;;;;;;5068031;28;20103;-76
2021/01/30 14:10:39;;;;;;;9.82;4.97;;;;;;;;;;5053412;28;20117;-78
2021/01/30 14:13:05;;;;;;;7.43;4.45;;;;;;;;;;5068498;28;20099;-75
2021/01/30 14:15:31;;;;;;;7.47;4.60;;;;;;;;;;5056219;28;20594;-75
2021/01/30 14:17:58;;;;;;;10.13;5.00;;;;;;;;;;5052416;28;20605;-76
2021/01/30 14:20:25;;;;;;;7.88;4.88;;;;;;;;;;5049607;28;20047;-75
2021/01/30 14:22:51;;;;;;;7.80;4.90;;;;;;;;;;5037442;28;20148;-76
2021/01/30 14:25:17;;;;;;;8.18;4.57;;;;;;;;;;5056114;28;20306;-75
2021/01/30 14:27:43;;;;;;;8.50;5.50;;;;;;;;;;5059712;28;20056;-75
2021/01/30 14:30:09;;;;;;;6.93;4.95;;;;;;;;;;5043192;28;20065;-76
2021/01/30 14:32:35;;;;;;;7.55;4.88;;;;;;;;;;5061870;28;20058;-77
2021/01/30 14:35:02;;;;;;;8.38;5.43;;;;;;;;;;5059953;28;20286;-76
2021/01/30 14:37:28;;;;;;;9.95;5.35;;;;;;;;;;5065176;28;20040;-76
2021/01/30 14:39:54;;;;;;;9.25;5.55;;;;;;;;;;5065111;28;20101;-76
2021/01/30 14:42:20;;;;;;;8.02;5.13;;;;;;;;;;5066958;28;20028;-77
2021/01/30 14:44:47;;;;;;;10.15;5.72;;;;;;;;;;5056171;28;20079;-77
2021/01/30 14:47:13;;;;;;;10.25;5.90;;;;;;;;;;5042558;28;20071;-76
2021/01/30 14:49:39;;;;;;;9.88;6.03;;;;;;;;;;5043493;28;20032;-77
2021/01/30 14:52:05;;;;;;;8.82;5.13;;;;;;;;;;5048651;28;20482;-77
2021/01/30 14:54:31;;;;;;;8.77;5.20;;;;;;;;;;5043608;28;20061;-77
2021/01/30 14:56:57;;;;;;;9.07;5.47;;;;;;;;;;5065460;28;20028;-76
2021/01/30 14:59:23;;;;;;;10.88;5.85;;;;;;;;;;5063704;28;20432;-77